Thursday, October 23, 2014
03:51 UTC
  |  Log In   |  Register Free
Airport Search:

Olympia Regional Airport
(KOLM)

Airport information sponsored by:
Glacier Jet Center at Olympia Regional (KOLM), Olympia, WA
FAA data valid effective September 18, 2014 - November 13, 2014 (unless otherwise noted).

 
 
 
 
 
 
 
 
 
 
 
 
 
 

Current Aviation Weather for Olympia Regional Airport (KOLM)

The most recent METAR observation for KOLM was updated at: 0317
METAR Summary (Translated METAR)
KOLM
230307Z AUTO 21012G21KT 5SM RA BR FEW011 BKN027 OVC043 13/12 A2961 RMK AO2 P0002 T01280117 $
KGRF
230258Z AUTO 16011KT 10SM DZ FEW027 BKN055 14/12 A2959 RMK AO2 SLP024 P0000 60004 T01380115 55003 $
(14.7 nm NE from KOLM)
KCLS
230255Z AUTO 18014KT 5SM BR FEW011 SCT021 BKN026 14/13 A2961 RMK AO2
(17.9 nm SW from KOLM)
TAF Summary (Translated TAF)
KOLM
230309Z 2303/2324 19015KT 6SM -SHRA BR SCT015 BKN030 BKN050 FM230700 21011KT P6SM -SHRA SCT020 BKN040 BKN060 FM231800 21011KT P6SM -SHRA BKN022 OVC050 FM232100 21011KT P6SM -SHRA SCT030 BKN050 BKN090 PROB30 2321/2324 5SM TSRA OVC025CB
KGRF
(14.7 nm NE from KOLM)
2221/2403 19009KT 6000 -RA BKN045 BKN060 620802 QNH2967INS TEMPO 2300/2304 BKN010 -SHRA BECMG 2305/2306 20009KT 9999 -SHRA SCT015 BKN030 OVC050 610802 QNH2965INS BECMG 2308/2309 22009KT 9999 -SHRA BKN015 OVC030 610703 QNH2968INS BECMG 2311/2312 18005KT 9999 VCSH OVC015 610703 QNH2973INS BECMG 2314/2315 18003KT 9999 NSW SCT012 OVC070 620703 QNH2975INS BECMG 2317/2318 19006KT 9999 -SHRA SCT015 BKN020 OVC045 610703 QNH2979INS BECMG 2320/2321 20007KT 9999 -SHRA OVC015 610703 QNH2982INS TX18/2323Z TN09/2313Z
  Airport Weather Conditions for KOLM

 Current Weather at OLM
55° F
Light Rain
South winds at 17.3 mph
OLM NOAA Radar

Pressure: 29.59 in
Humidity: 93%
Wind: from the South at 17.3 gusting to 27.6 MPH (15 gusting to 24 KT)
Dew Point: 53.1°F
Visibility: 7.00 mi


Airport Weather Forecast for KOLM

Translated METAR and TAF for KOLM
Translated METAR for KOLM (0346 UTC 23 October 2014)
found at http://aviationweather.gov/adds/metars/
 
METAR text: KOLM 230339Z AUTO 20010KT 10SM FEW012 SCT026 BKN110 13/12 A2963 RMK AO2 RAE21 P0004 T01280117 $
Conditions at: KOLM (OLYMPIA , WA, US) observed 0339 UTC 23 October 2014
Temperature: 12.8°C (55°F)
Dewpoint: 11.7°C (53°F) [RH = 93%]
Pressure (altimeter): 29.63 inches Hg (1003.5 mb)
Winds: from the SSW (200 degrees) at 12 MPH (10 knots; 5.2 m/s)
Visibility: 10 or more miles (16+ km)
Ceiling: 11000 feet AGL
Clouds: few clouds at 1200 feet AGL
scattered clouds at 2600 feet AGL
broken clouds at 11000 feet AGL
Weather:
SOME DATA ABOVE MAY BE INACCURATE!!!
"$" is an indication the sensor requires maintenance
Translated TAF for KOLM
Forecast for: KOLM (OLYMPIA , WA, US)
TAF Text: KOLM 230309Z 2303/2324 19015KT 6SM -SHRA BR SCT015 BKN030 BKN050
Forecast period: 0300 to 0700 UTC 23 October 2014
Forecast type: FROM: standard forecast or significant change
Winds: from the S (190 degrees) at 17 MPH (15 knots; 7.8 m/s)
Visibility: 6 miles (10 km)
Ceiling: 3000 feet AGL
Clouds: scattered clouds at 1500 feet AGL
broken clouds at 3000 feet AGL
broken clouds at 5000 feet AGL
Weather: -SHRA BR  (light rain showers, mist)
TAF Text: FM230700 21011KT P6SM -SHRA SCT020 BKN040 BKN060
Forecast period: 0700 to 1800 UTC 23 October 2014
Forecast type: FROM: standard forecast or significant change
Winds: from the SSW (210 degrees) at 13 MPH (11 knots; 5.7 m/s)
Visibility: 6 or more miles (10+ km)
Ceiling: 4000 feet AGL
Clouds: scattered clouds at 2000 feet AGL
broken clouds at 4000 feet AGL
broken clouds at 6000 feet AGL
Weather: -SHRA  (light rain showers)
TAF Text: FM231800 21011KT P6SM -SHRA BKN022 OVC050
Forecast period: 1800 to 2100 UTC 23 October 2014
Forecast type: FROM: standard forecast or significant change
Winds: from the SSW (210 degrees) at 13 MPH (11 knots; 5.7 m/s)
Visibility: 6 or more miles (10+ km)
Ceiling: 2200 feet AGL
Clouds: broken clouds at 2200 feet AGL
overcast cloud deck at 5000 feet AGL
Weather: -SHRA  (light rain showers)
TAF Text: FM232100 21011KT P6SM -SHRA SCT030 BKN050 BKN090
Forecast period: 2100 UTC 23 October 2014 to 0000 UTC 24 October 2014
Forecast type: FROM: standard forecast or significant change
Winds: from the SSW (210 degrees) at 13 MPH (11 knots; 5.7 m/s)
Visibility: 6 or more miles (10+ km)
Ceiling: 5000 feet AGL
Clouds: scattered clouds at 3000 feet AGL
broken clouds at 5000 feet AGL
broken clouds at 9000 feet AGL
Weather: -SHRA  (light rain showers)
TAF Text: PROB30 2321/2324 5SM TSRA OVC025CB
Forecast period: 2100 UTC 23 October 2014 to 0000 UTC 24 October 2014
Forecast type: PROBABLE: 30 percent likelihood of the following during this time
Visibility: 5 miles (8 km)
Ceiling: 2500 feet AGL
Clouds: overcast cloud deck at 2500 feet AGL
Weather: TSRA  (rain associated with thunderstorm(s))

Find All Airport Services Find A Hotel Find A Rental Car Find A Golf Course Find A Restaurant $100 Hamburger



FBO's on the Field
FBO Company Facility Photos Services Transportation Aviation Fuel Prices: Prices include tax
Catering Weather Repair Courtesy Rental Type 100LL JetA JetA+ MOGAS 8087
 
Glacier Jet Center

Glacier Jet Center logo
Currently rated 3.6 by 1 person
FS:
Last Updated: Oct-07
Login to update fuel prices
SS:
Contact Glacier Jet CenterMore FBO Information
 
Jorgensen Air Service

Jorgensen Air Service logo
Currently rated 4.7 by 3 people
FS:
Last Updated: Oct-08
Login to update fuel prices
SS:
Contact Jorgensen Air ServiceMore FBO Information
 
Add another FBO Facility Photos Catering Weather Repair Courtesy Rental Type 100LL JetA JetA+ MOGAS 8087
Services Transportation Aviation Fuel Prices: Prices include tax


model-print
model-print
model-print
model-print